Teton Village, Wyoming
Current Conditions -  °F | °C
As of 2:56 PM on Tuesday 21 Oct 2014 (Local Time) from KJAC Reporting Station
Scattered Clouds Scattered Clouds  
Wind Chill: 39°   Ceiling: Unl
Heat Index: 46°   Visibility: 10mi
Dew Point: 30°   Wind: 22mph
Humidity: 53%   Direction: 180°S
Pressure: 30.01"   Gusts: 26mph
Location:  43.59°N, 110.83°W
Report Text: KJAC 212056Z 18019G23KT 10SM SCT080 08/M01 A3001
Loading
Personal Weather Stations






























Interactive Weather Map
Tropical Storm Tracking
New forecast layout! Learn more

10-Day Weather Forecast

Advertisements
Track Severe Weather on mobile